Date,TemperatureHighF,TemperatureAvgF,TemperatureLowF,DewpointHighF,DewpointAvgF,DewpointLowF,HumidityHigh,HumidityAvg,HumidityLow,PressureMaxIn,PressureMinIn,WindSpeedMaxMPH,WindSpeedAvgMPH,GustSpeedMaxMPH,PrecipitationSumIn
2013-1-1,19,10,-1,-100,-100,-100,0,0,100,0.00,40.00,0,-999,0,0.01
2013-1-2,26,10,-2,-100,-100,-100,0,0,100,0.00,40.00,0,-999,0,0.00
2013-1-3,23,6,-4,-100,-100,-100,0,0,100,0.00,40.00,0,-999,0,0.00
2013-1-4,30,13,-3,-100,-100,-100,0,0,100,0.00,40.00,0,-999,0,0.00
2013-1-5,38,22,6,-100,-100,-100,0,0,100,0.00,40.00,0,-999,0,0.00
2013-1-6,42,25,14,-100,-100,-100,0,0,100,0.00,40.00,0,-999,0,0.00
2013-1-7,44,30,19,-100,-100,-100,0,0,100,0.00,40.00,0,-999,0,0.00
2013-1-8,40,26,16,-100,-100,-100,0,0,100,0.00,40.00,0,-999,0,0.00
2013-1-9,43,27,16,-100,-100,-100,0,0,100,0.00,40.00,0,-999,0,0.00
2013-1-10,41,28,19,-100,-100,-100,0,0,100,0.00,40.00,0,-999,0,0.00
2013-1-11,29,15,2,-100,-100,-100,0,0,100,0.00,40.00,0,-999,0,0.01
2013-1-12,13,1,-13,-100,-100,-100,0,0,100,0.00,40.00,0,-999,0,0.00
2013-1-13,11,1,-9,-100,-100,-100,0,0,100,0.00,40.00,0,-999,0,0.00
2013-1-14,12,6,-4,-100,-100,-100,0,0,100,0.00,40.00,0,-999,0,0.00
2013-1-15,15,5,-9,-100,-100,-100,0,0,100,0.00,40.00,0,-999,0,0.00
2013-1-16,36,23,13,-100,-100,-100,0,0,100,0.00,40.00,0,-999,0,0.00
2013-1-17,37,24,16,-100,-100,-100,0,0,100,0.00,40.00,0,-999,0,0.00
2013-1-18,40,27,17,-100,-100,-100,0,0,100,0.00,40.00,0,-999,0,0.00
2013-1-19,44,27,17,-100,-100,-100,0,0,100,0.00,40.00,0,-999,0,0.00
2013-1-20,48,28,17,-100,-100,-100,0,0,100,0.00,40.00,0,-999,0,0.00
2013-1-21,42,28,13,-100,-100,-100,0,0,100,0.00,40.00,0,-999,0,0.00
2013-1-22,48,32,20,-100,-100,-100,0,0,100,0.00,40.00,0,-999,0,0.00
2013-1-23,46,33,22,-100,-100,-100,0,0,100,0.00,40.00,0,-999,0,0.00
2013-1-24,44,36,27,-100,-100,-100,0,0,100,0.00,40.00,0,-999,0,0.00
2013-1-25,44,35,28,-100,-100,-100,0,0,100,0.00,40.00,0,-999,0,0.00
2013-1-26,42,36,32,-100,-100,-100,0,0,100,0.00,40.00,0,-999,0,0.01
2013-1-27,39,34,31,-100,-100,-100,0,0,100,0.00,40.00,0,-999,0,0.01
2013-1-28,36,30,22,-100,-100,-100,0,0,100,0.00,40.00,0,-999,0,0.03
2013-1-29,20,15,8,-100,-100,-100,0,0,100,0.00,40.00,0,-999,0,0.01
2013-1-30,21,12,-3,-100,-100,-100,0,0,100,0.00,40.00,0,-999,0,0.01
2013-1-31,33,26,16,-100,-100,-100,0,0,100,0.00,40.00,0,-999,0,0.00
2013-2-1,37,28,20,-100,-100,-100,0,0,100,0.00,40.00,0,-999,0,0.00
2013-2-2,42,28,17,-100,-100,-100,0,0,100,0.00,40.00,0,-999,0,0.00
2013-2-3,41,30,17,-100,-100,-100,0,0,100,0.00,40.00,0,-999,0,0.00
2013-2-4,42,30,16,-100,-100,-100,0,0,100,0.00,40.00,0,-999,0,0.00
2013-2-5,48,32,19,-100,-100,-100,0,0,100,0.00,40.00,0,-999,0,0.00
2013-2-6,44,33,25,-100,-100,-100,0,0,100,0.00,40.00,0,-999,0,0.00
2013-2-7,38,28,18,-100,-100,-100,0,0,100,0.00,40.00,0,-999,0,0.00
2013-2-8,40,27,16,-100,-100,-100,0,0,100,0.00,40.00,0,-999,0,0.00
2013-2-9,36,22,14,-100,-100,-100,0,0,100,0.00,40.00,0,-999,0,0.01
2013-2-10,23,16,7,-100,-100,-100,0,0,100,0.00,40.00,0,-999,0,0.01
2013-2-11,24,17,12,-100,-100,-100,0,0,100,0.00,40.00,0,-999,0,0.01
2013-2-12,26,12,1,-100,-100,-100,0,0,100,0.00,40.00,0,-999,0,0.01
2013-2-13,36,22,6,-100,-100,-100,0,0,100,0.00,40.00,0,-999,0,0.00
2013-2-14,33,20,10,-100,-100,-100,0,0,100,0.00,40.00,0,-999,0,0.00
2013-2-15,27,19,9,-100,-100,-100,0,0,100,0.00,40.00,0,-999,0,0.00
2013-2-16,39,26,11,-100,-100,-100,0,0,100,0.00,40.00,0,-999,0,0.00
2013-2-17,43,31,16,-100,-100,-100,0,0,100,0.00,40.00,0,-999,0,0.00
2013-2-18,30,24,12,-100,-100,-100,0,0,100,0.00,40.00,0,-999,0,0.00
2013-2-19,41,25,8,-100,-100,-100,0,0,100,0.00,40.00,0,-999,0,0.00
2013-2-20,31,23,12,-100,-100,-100,0,0,100,0.00,40.00,0,-999,0,0.04
2013-2-21,27,18,7,-100,-100,-100,0,0,100,0.00,40.00,0,-999,0,0.01
2013-2-22,30,20,14,-100,-100,-100,0,0,100,0.00,40.00,0,-999,0,0.01
2013-2-23,31,21,11,-100,-100,-100,0,0,100,0.00,40.00,0,-999,0,0.01
2013-2-24,31,22,15,-100,-100,-100,0,0,100,0.00,40.00,0,-999,0,0.00
2013-2-25,27,16,7,-100,-100,-100,0,0,100,0.00,40.00,0,-999,0,0.00
2013-2-26,30,18,8,-100,-100,-100,0,0,100,0.00,40.00,0,-999,0,0.01
2013-2-27,29,12,-3,-100,-100,-100,0,0,100,0.00,40.00,0,-999,0,0.01
2013-2-28,34,19,6,-100,-100,-100,0,0,100,0.00,40.00,0,-999,0,0.00
2013-3-1,37,27,18,-100,-100,-100,0,0,100,0.00,40.00,0,-999,0,0.00
2013-3-2,49,34,25,-100,-100,-100,0,0,100,0.00,40.00,0,-999,0,0.00
2013-3-3,45,37,27,-100,-100,-100,0,0,100,0.00,40.00,0,-999,0,0.00
2013-3-4,38,33,25,-100,-100,-100,0,0,100,0.00,40.00,0,-999,0,0.00
2013-3-5,47,32,19,-100,-100,-100,0,0,100,0.00,40.00,0,-999,0,0.00
2013-3-6,45,36,22,-100,-100,-100,0,0,100,0.00,40.00,0,-999,0,0.00
2013-3-7,48,39,29,-100,-100,-100,0,0,100,0.00,40.00,0,-999,0,0.00
2013-3-8,47,35,25,-100,-100,-100,0,0,100,0.00,40.00,0,-999,0,0.02
2013-3-9,28,22,18,-100,-100,-100,0,0,100,0.00,40.00,0,-999,0,0.02
2013-3-10,27,21,9,-100,-100,-100,0,0,100,0.00,40.00,0,-999,0,0.01
2013-3-11,42,29,15,-100,-100,-100,0,0,100,0.00,40.00,0,-999,0,0.00
2013-3-12,45,33,26,-100,-100,-100,0,0,100,0.00,40.00,0,-999,0,0.00
2013-3-13,48,37,30,-100,-100,-100,0,0,100,0.00,40.00,0,-999,0,0.00
2013-3-14,52,40,32,-100,-100,-100,0,0,100,0.00,40.00,0,-999,0,0.00
2013-3-15,56,43,31,-100,-100,-100,0,0,100,0.00,40.00,0,-999,0,0.00
2013-3-16,48,42,34,-100,-100,-100,0,0,100,0.00,40.00,0,-999,0,0.00
2013-3-17,41,34,27,-100,-100,-100,0,0,100,0.00,40.00,0,-999,0,0.01
2013-3-18,40,34,26,-100,-100,-100,0,0,100,0.00,40.00,0,-999,0,0.00
2013-3-19,40,34,27,-100,-100,-100,0,0,100,0.00,40.00,0,-999,0,0.00
2013-3-20,43,34,20,-100,-100,-100,0,0,100,0.00,40.00,0,-999,0,0.00
2013-3-21,44,39,31,-100,-100,-100,0,0,100,0.00,40.00,0,-999,0,0.00
2013-3-22,42,34,28,-100,-100,-100,0,0,100,0.00,40.00,0,-999,0,0.00
2013-3-23,32,22,10,-100,-100,-100,0,0,100,0.00,40.00,0,-999,0,0.00
2013-3-24,29,15,2,-100,-100,-100,0,0,100,0.00,40.00,0,-999,0,0.00
2013-3-25,32,22,6,-100,-100,-100,0,0,100,0.00,40.00,0,-999,0,0.00
2013-3-26,44,34,12,-100,-100,-100,0,0,100,0.00,40.00,0,-999,0,0.00
2013-3-27,48,40,32,-100,-100,-100,0,0,100,0.00,40.00,0,-999,0,0.00
2013-3-28,50,39,29,-100,-100,-100,0,0,100,0.00,40.00,0,-999,0,0.00
2013-3-29,51,37,29,-100,-100,-100,0,0,100,0.00,40.00,0,-999,0,0.00
2013-3-30,52,39,27,-100,-100,-100,0,0,100,0.00,40.00,0,-999,0,0.00
2013-3-31,51,40,27,-100,-100,-100,0,0,100,0.00,40.00,0,-999,0,0.00
2013-4-1,53,44,32,-100,-100,-100,0,0,100,0.00,40.00,0,-999,0,0.00
2013-4-2,50,37,29,-100,-100,-100,0,0,100,0.00,40.00,0,-999,0,0.00
2013-4-3,40,33,29,-100,-100,-100,0,0,100,0.00,40.00,0,-999,0,0.01
2013-4-4,51,38,23,-100,-100,-100,0,0,100,0.00,40.00,0,-999,0,0.00
2013-4-5,52,43,33,-100,-100,-100,0,0,100,0.00,40.00,0,-999,0,0.00
2013-4-6,51,44,35,-100,-100,-100,0,0,100,0.00,40.00,0,-999,0,0.00
2013-4-7,50,44,38,-100,-100,-100,0,0,100,0.00,40.00,0,-999,0,0.00
2013-4-8,53,44,32,-100,-100,-100,0,0,100,0.00,40.00,0,-999,0,0.00
2013-4-9,38,26,21,-100,-100,-100,0,0,100,0.00,40.00,0,-999,0,0.02
2013-4-10,33,28,22,-100,-100,-100,0,0,100,0.00,40.00,0,-999,0,0.01
2013-4-11,44,31,19,-100,-100,-100,0,0,100,0.00,40.00,0,-999,0,0.00
2013-4-12,46,37,27,-100,-100,-100,0,0,100,0.00,40.00,0,-999,0,0.00
2013-4-13,49,40,26,-100,-100,-100,0,0,100,0.00,40.00,0,-999,0,0.00
2013-4-14,46,42,37,-100,-100,-100,0,0,100,0.00,40.00,0,-999,0,0.01
2013-4-15,52,44,37,-100,-100,-100,0,0,100,0.00,40.00,0,-999,0,0.00
2013-4-16,56,45,38,-100,-100,-100,0,0,100,0.00,40.00,0,-999,0,0.00
2013-4-17,44,36,19,-100,-100,-100,0,0,100,0.00,40.00,0,-999,0,0.01
2013-4-18,28,21,15,-100,-100,-100,0,0,100,0.00,40.00,0,-999,0,0.01
2013-4-19,43,30,11,-100,-100,-100,0,0,100,0.00,40.00,0,-999,0,0.00
2013-4-20,44,35,28,-100,-100,-100,0,0,100,0.00,40.00,0,-999,0,0.00
2013-4-21,51,39,27,-100,-100,-100,0,0,100,0.00,40.00,0,-999,0,0.00
2013-4-22,54,45,35,-100,-100,-100,0,0,100,0.00,40.00,0,-999,0,0.00
2013-4-23,42,36,32,-100,-100,-100,0,0,100,0.00,40.00,0,-999,0,0.01
2013-4-24,49,44,35,-100,-100,-100,0,0,100,0.00,40.00,0,-999,0,0.00
2013-4-25,52,40,28,-100,-100,-100,0,0,100,0.00,40.00,0,-999,0,0.01
2013-4-26,48,38,31,-100,-100,-100,0,0,100,0.00,40.00,0,-999,0,0.01
2013-4-27,54,41,28,-100,-100,-100,0,0,100,0.00,40.00,0,-999,0,0.00
2013-4-28,60,46,30,-100,-100,-100,0,0,100,0.00,40.00,0,-999,0,0.00
2013-4-29,63,50,33,-100,-100,-100,0,0,100,0.00,40.00,0,-999,0,0.00
2013-4-30,63,52,38,-100,-100,-100,0,0,100,0.00,40.00,0,-999,0,0.00
2013-5-1,60,45,25,-100,-100,-100,0,0,100,0.00,40.00,0,-999,0,0.00
2013-5-2,42,29,15,-100,-100,-100,0,0,100,0.00,40.00,0,-999,0,0.01
2013-5-3,53,39,20,-100,-100,-100,0,0,100,0.00,40.00,0,-999,0,0.00
2013-5-4,53,39,25,-100,-100,-100,0,0,100,0.00,40.00,0,-999,0,0.00
2013-5-5,54,41,27,-100,-100,-100,0,0,100,0.00,40.00,0,-999,0,0.01
2013-5-6,42,38,32,-100,-100,-100,0,0,100,0.00,40.00,0,-999,0,0.02
2013-5-7,53,43,35,-100,-100,-100,0,0,100,0.00,40.00,0,-999,0,0.01
2013-5-8,49,41,31,-100,-100,-100,0,0,100,0.00,40.00,0,-999,0,0.00
2013-5-9,51,37,29,-100,-100,-100,0,0,100,0.00,40.00,0,-999,0,0.01
2013-5-10,49,38,28,-100,-100,-100,0,0,100,0.00,40.00,0,-999,0,0.00
2013-5-11,49,40,32,-100,-100,-100,0,0,100,0.00,40.00,0,-999,0,0.00
2013-5-12,55,44,31,-100,-100,-100,0,0,100,0.00,40.00,0,-999,0,0.00
2013-5-13,64,48,36,-100,-100,-100,0,0,100,0.00,40.00,0,-999,0,0.00
2013-5-14,65,49,37,-100,-100,-100,0,0,100,0.00,40.00,0,-999,0,0.00
2013-5-15,59,47,37,-100,-100,-100,0,0,100,0.00,40.00,0,-999,0,0.00
2013-5-16,64,50,37,-100,-100,-100,0,0,100,0.00,40.00,0,-999,0,0.00
2013-5-17,65,54,42,-100,-100,-100,0,0,100,0.00,40.00,0,-999,0,0.00
2013-5-18,57,49,41,-100,-100,-100,0,0,100,0.00,40.00,0,-999,0,0.01
2013-5-19,50,42,33,-100,-100,-100,0,0,100,0.00,40.00,0,-999,0,0.00
2013-5-20,53,41,31,-100,-100,-100,0,0,100,0.00,40.00,0,-999,0,0.00
2013-5-21,56,46,31,-100,-100,-100,0,0,100,0.00,40.00,0,-999,0,0.00
2013-5-22,63,51,36,-100,-100,-100,0,0,100,0.00,40.00,0,-999,0,0.00
2013-5-23,69,54,38,-100,-100,-100,0,0,100,0.00,40.00,0,-999,0,0.00
2013-5-24,67,55,41,-100,-100,-100,0,0,100,0.00,40.00,0,-999,0,1.21
2013-5-25,68,56,40,-100,-100,-100,0,0,100,0.00,40.00,0,-999,0,0.00
2013-5-26,65,53,37,-100,-100,-100,0,0,100,0.00,40.00,0,-999,0,0.01
2013-5-27,63,50,35,-100,-100,-100,0,0,100,0.00,40.00,0,-999,0,0.00
2013-5-28,64,48,33,-100,-100,-100,0,0,100,0.00,40.00,0,-999,0,0.00
2013-5-29,57,49,40,-100,-100,-100,0,0,100,0.00,40.00,0,-999,0,0.01
2013-5-30,61,49,34,-100,-100,-100,0,0,100,0.00,40.00,0,-999,0,0.56
2013-5-31,63,52,39,-100,-100,-100,0,0,100,0.00,40.00,0,-999,0,0.55
2013-6-1,62,49,33,-100,-100,-100,0,0,100,0.00,40.00,0,-999,0,0.00
2013-6-2,66,53,34,-100,-100,-100,0,0,100,0.00,40.00,0,-999,0,0.00
2013-6-3,69,56,41,-100,-100,-100,0,0,100,0.00,40.00,0,-999,0,0.00
2013-6-4,70,58,43,-100,-100,-100,0,0,100,0.00,40.00,0,-999,0,0.00
2013-6-5,65,52,42,-100,-100,-100,0,0,100,0.00,40.00,0,-999,0,0.01
2013-6-6,68,51,36,-100,-100,-100,0,0,100,0.00,40.00,0,-999,0,0.00
2013-6-7,66,48,36,-100,-100,-100,0,0,100,0.00,40.00,0,-999,0,0.01
2013-6-8,69,54,39,-100,-100,-100,0,0,100,0.00,40.00,0,-999,0,0.01
2013-6-9,72,58,40,-100,-100,-100,0,0,100,0.00,40.00,0,-999,0,0.00
2013-6-10,77,62,46,-100,-100,-100,0,0,100,0.00,40.00,0,-999,0,0.00
2013-6-11,77,64,48,-100,-100,-100,0,0,100,0.00,40.00,0,-999,0,0.00
2013-6-12,80,63,45,-100,-100,-100,0,0,100,0.00,40.00,0,-999,0,0.00
2013-6-13,74,57,48,-100,-100,-100,0,0,100,0.00,40.00,0,-999,0,0.01
2013-6-14,65,55,46,-100,-100,-100,0,0,100,0.00,40.00,0,-999,0,0.01
2013-6-15,72,58,40,-100,-100,-100,0,0,100,0.00,40.00,0,-999,0,0.00
2013-6-16,69,57,47,-100,-100,-100,0,0,100,0.00,40.00,0,-999,0,0.00
2013-6-17,69,54,40,-100,-100,-100,0,0,100,0.00,40.00,0,-999,0,0.01
2013-6-18,71,56,46,-100,-100,-100,0,0,100,0.00,40.00,0,-999,0,0.00
2013-6-19,72,58,44,-100,-100,-100,0,0,100,0.00,40.00,0,-999,0,0.00
2013-6-20,72,58,47,-100,-100,-100,0,0,100,0.00,40.00,0,-999,0,0.00
2013-6-22,71,64,52,-100,-100,-100,0,0,100,0.00,40.00,0,-999,0,0.00
2013-6-23,75,59,43,-100,-100,-100,0,0,100,0.00,40.00,0,-999,0,0.00
2013-6-24,71,59,44,-100,-100,-100,0,0,100,0.00,40.00,0,-999,0,0.00
2013-6-25,71,61,51,-100,-100,-100,0,0,100,0.00,40.00,0,-999,0,0.00
2013-6-26,74,62,46,-100,-100,-100,0,0,100,0.00,40.00,0,-999,0,0.00
2013-6-27,81,62,47,-100,-100,-100,0,0,100,0.00,40.00,0,-999,0,0.01
2013-6-28,74,58,50,-100,-100,-100,0,0,100,0.00,40.00,0,-999,0,0.01
2013-6-29,71,55,44,-100,-100,-100,0,0,100,0.00,40.00,0,-999,0,0.01
2013-6-30,73,55,41,-100,-100,-100,0,0,100,0.00,40.00,0,-999,0,0.01
2013-7-1,56,49,39,-100,-100,-100,0,0,100,0.00,40.00,0,-999,0,0.01
2013-7-2,66,52,40,-100,-100,-100,0,0,100,0.00,40.00,0,-999,0,0.01
2013-7-3,65,51,41,-100,-100,-100,0,0,100,0.00,40.00,0,-999,0,0.00
2013-7-4,68,55,41,-100,-100,-100,0,0,100,0.00,40.00,0,-999,0,0.00
2013-7-5,76,58,44,-100,-100,-100,0,0,100,0.00,40.00,0,-999,0,0.01
2013-7-6,68,55,45,-100,-100,-100,0,0,100,0.00,40.00,0,-999,0,0.01
2013-7-7,66,57,46,-100,-100,-100,0,0,100,0.00,40.00,0,-999,0,0.01
2013-7-8,72,56,49,-100,-100,-100,0,0,100,0.00,40.00,0,-999,0,0.01
2013-7-9,69,59,47,-100,-100,-100,0,0,100,0.00,40.00,0,-999,0,0.02
2013-7-10,70,57,49,-100,-100,-100,0,0,100,0.00,40.00,0,-999,0,0.02
2013-7-11,70,54,45,-100,-100,-100,0,0,100,0.00,40.00,0,-999,0,0.01
2013-7-12,74,58,47,-100,-100,-100,0,0,100,0.00,40.00,0,-999,0,0.00
2013-7-13,74,60,48,-100,-100,-100,0,0,100,0.00,40.00,0,-999,0,0.01
2013-7-14,68,57,45,-100,-100,-100,0,0,100,0.00,40.00,0,-999,0,0.01
2013-7-15,57,50,46,-100,-100,-100,0,0,100,0.00,40.00,0,-999,0,0.04
2013-7-16,56,49,39,-100,-100,-100,0,0,100,0.00,40.00,0,-999,0,0.02
2013-7-17,61,53,40,-100,-100,-100,0,0,100,0.00,40.00,0,-999,0,0.00
2013-7-18,69,58,43,-100,-100,-100,0,0,100,0.00,40.00,0,-999,0,0.00
2013-7-19,66,54,45,-100,-100,-100,0,0,100,0.00,40.00,0,-999,0,0.01
2013-7-20,67,53,45,-100,-100,-100,0,0,100,0.00,40.00,0,-999,0,0.02
2013-7-21,66,55,46,-100,-100,-100,0,0,100,0.00,40.00,0,-999,0,0.01
2013-7-22,72,58,45,-100,-100,-100,0,0,100,0.00,40.00,0,-999,0,0.01
2013-7-23,70,58,48,-100,-100,-100,0,0,100,0.00,40.00,0,-999,0,0.00
2013-7-24,71,59,48,-100,-100,-100,0,0,100,0.00,40.00,0,-999,0,0.00
2013-7-25,70,56,45,-100,-100,-100,0,0,100,0.00,40.00,0,-999,0,0.01
2013-7-26,65,53,44,-100,-100,-100,0,0,100,0.00,40.00,0,-999,0,0.02
2013-7-27,71,55,44,-100,-100,-100,0,0,100,0.00,40.00,0,-999,0,0.01
2013-7-28,63,54,47,-100,-100,-100,0,0,100,0.00,40.00,0,-999,0,0.01
2013-7-29,67,56,48,-100,-100,-100,0,0,100,0.00,40.00,0,-999,0,0.00
2013-7-30,69,59,45,-100,-100,-100,0,0,100,0.00,40.00,0,-999,0,0.00
2013-7-31,72,60,45,-100,-100,-100,0,0,100,0.00,40.00,0,-999,0,0.00
2013-8-1,68,58,47,-100,-100,-100,0,0,100,0.00,40.00,0,-999,0,0.00
2013-8-2,70,58,49,-100,-100,-100,0,0,100,0.00,40.00,0,-999,0,0.01
2013-8-3,67,56,49,-100,-100,-100,0,0,100,0.00,40.00,0,-999,0,0.01
2013-8-4,69,58,47,-100,-100,-100,0,0,100,0.00,40.00,0,-999,0,0.01
2013-8-5,68,57,47,-100,-100,-100,0,0,100,0.00,40.00,0,-999,0,0.01
2013-8-6,66,57,46,-100,-100,-100,0,0,100,0.00,40.00,0,-999,0,0.01
2013-8-7,63,52,43,-100,-100,-100,0,0,100,0.00,40.00,0,-999,0,0.01
2013-8-8,58,48,42,-100,-100,-100,0,0,100,0.00,40.00,0,-999,0,0.01
2013-8-9,65,50,38,-100,-100,-100,0,0,100,0.00,40.00,0,-999,0,0.01
2013-8-10,67,53,42,-100,-100,-100,0,0,100,0.00,40.00,0,-999,0,0.00
2013-8-11,65,52,43,-100,-100,-100,0,0,100,0.00,40.00,0,-999,0,0.00
2013-8-12,60,50,44,-100,-100,-100,0,0,100,0.00,40.00,0,-999,0,0.01
2013-8-13,66,54,42,-100,-100,-100,0,0,100,0.00,40.00,0,-999,0,0.01
2013-8-14,66,53,43,-100,-100,-100,0,0,100,0.00,40.00,0,-999,0,0.00
2013-8-15,67,56,44,-100,-100,-100,0,0,100,0.00,40.00,0,-999,0,0.00
2013-8-16,72,61,46,-100,-100,-100,0,0,100,0.00,40.00,0,-999,0,0.00
2013-8-24,66,57,45,-100,-100,-100,0,0,100,0.00,40.00,0,-999,0,0.00
2013-8-25,67,55,47,-100,-100,-100,0,0,100,0.00,40.00,0,-999,0,0.00
2013-8-26,67,56,46,-100,-100,-100,0,0,100,0.00,40.00,0,-999,0,0.00
2013-8-27,66,54,46,-100,-100,-100,0,0,100,0.00,40.00,0,-999,0,0.00
2013-8-28,72,65,50,43,39,37,75,42,29,0.00,40.00,4,2,11,0.00
2013-8-29,74,57,46,48,42,38,89,63,30,0.00,40.00,3,-175,8,0.00
2013-8-30,72,63,45,49,35,28,65,39,21,0.00,40.00,4,-63,12,0.00
2013-8-31,72,54,48,50,38,-100,95,61,32,0.00,40.00,2,1,7,0.00
2013-9-1,69,56,47,55,48,42,97,78,47,0.00,40.00,5,2,12,0.01
2013-9-2,68,54,45,52,48,42,99,80,49,0.00,40.00,2,1,7,0.00
2013-9-3,68,50,45,52,35,-100,97,82,51,0.00,40.00,2,-153,7,0.01
2013-9-4,72,59,45,52,32,-100,97,57,27,0.00,40.00,4,-70,11,0.00
2013-9-5,71,58,44,45,36,32,74,48,27,0.00,40.00,5,2,11,0.00
2013-9-6,71,59,45,43,26,-100,67,41,27,0.00,40.00,3,-65,9,0.00
2013-9-8,70,59,44,45,39,35,80,49,30,0.00,40.00,2,-70,7,0.00
2013-9-9,65,57,45,48,12,-100,87,48,37,0.00,40.00,2,-262,6,0.01
2013-9-10,61,51,40,51,45,39,97,79,56,0.00,40.00,3,2,10,0.01
2013-9-11,57,52,48,54,51,48,100,96,86,0.00,40.00,3,-142,8,0.02
2013-9-12,53,50,45,51,49,45,100,96,84,0.00,40.00,2,1,7,0.01
2013-9-13,48,46,43,48,46,43,100,100,100,0.00,40.00,2,-62,8,0.04
2013-9-14,50,45,42,49,42,-100,100,96,93,0.00,40.00,1,0,5,0.02
2013-9-15,54,46,39,49,44,39,100,95,77,0.00,40.00,3,-66,8,0.01
2013-9-16,59,48,40,51,44,40,100,89,61,0.00,40.00,2,1,5,0.01
2013-9-17,60,50,42,50,44,41,100,82,51,0.00,40.00,2,0,5,0.00
2013-9-18,48,47,45,45,43,41,93,88,81,0.00,40.00,1,0,3,0.00
2013-9-19,59,49,41,50,33,-100,100,72,41,0.00,40.00,6,-221,11,0.01
2013-9-20,61,51,44,45,39,32,98,68,34,0.00,40.00,2,1,6,0.00
2013-9-21,62,47,39,49,36,-100,100,75,38,0.00,40.00,2,1,6,0.00
2013-9-22,63,50,35,45,38,31,100,71,33,0.00,40.00,2,-50,9,0.02
2013-9-23,50,41,35,38,33,26,93,74,46,0.00,40.00,3,2,9,0.02
2013-9-24,61,46,30,30,21,12,84,45,16,0.00,40.00,2,1,6,0.00
2013-9-25,59,50,38,35,29,21,64,45,36,0.00,40.00,2,1,7,0.00
2013-9-26,59,53,48,32,25,20,52,35,23,0.00,40.00,2,-306,8,0.00
2013-9-27,51,42,31,41,33,28,98,74,48,0.00,40.00,3,2,9,0.01
2013-10-2,59,50,34,31,2,-100,72,28,17,0.00,40.00,2,-213,6,0.00
2013-10-3,58,50,42,31,14,-100,52,29,18,0.00,40.00,3,-43,9,0.00
2013-10-4,46,39,27,25,8,-3,67,30,17,0.00,40.00,3,-248,8,0.00
2013-10-5,42,35,22,16,2,-100,69,39,34,0.00,40.00,2,-104,6,0.00
2013-10-6,54,36,26,15,-20,-100,50,29,17,0.00,40.00,2,-363,5,0.00
2013-10-7,60,44,31,25,17,14,51,36,20,0.00,40.00,2,-70,7,0.00
2013-10-8,57,46,36,24,20,15,48,37,23,0.00,40.00,3,1,7,0.00
2013-10-9,56,46,36,31,26,22,64,46,28,0.00,40.00,1,1,5,0.00
2013-10-10,53,41,34,37,31,28,92,70,39,0.00,40.00,2,2,8,0.01
2013-10-11,40,34,26,33,29,25,94,83,75,0.00,40.00,2,1,5,0.02
2013-10-12,48,34,24,33,15,-100,99,63,29,0.00,40.00,2,-39,5,0.00
2013-10-13,55,47,37,40,35,30,90,65,40,0.00,40.00,3,2,8,0.00
2013-10-21,37,33,29,35,24,17,93,70,60,0.00,40.00,1,1,5,0.00
2013-10-22,50,35,26,20,18,15,76,54,26,0.00,40.00,2,1,4,0.00
2013-10-23,30,30,30,18,17,16,60,58,56,0.00,40.00,1,1,2,0.00
2013-10-24,50,46,43,29,21,17,56,38,28,0.00,40.00,3,2,8,0.00
2013-10-25,38,36,36,37,33,30,96,88,78,0.00,40.00,1,0,4,0.00
2013-10-26,46,35,28,36,18,-100,100,68,44,0.00,40.00,3,2,8,0.00
2013-10-27,35,35,35,29,29,29,77,77,77,0.00,40.00,0,0,2,0.00
2013-11-12,48,34,26,23,20,13,83,57,33,0.00,40.00,5,-68,9,0.00
2013-11-13,43,42,40,21,18,15,40,38,36,0.00,40.00,0,-500,2,0.00
2013-11-14,40,35,28,23,21,18,82,58,41,0.00,40.00,2,1,8,0.00
2013-11-15,37,34,32,32,25,19,98,72,47,0.00,40.00,2,1,5,0.00
2013-11-16,32,27,31,28,9,-100,86,70,78,0.00,40.00,3,3,9,0.00
2013-11-17,38,38,38,20,20,20,47,47,47,0.00,40.00,1,1,5,0.00
2013-11-18,38,28,20,21,18,17,90,68,46,0.00,40.00,2,1,8,0.00
2013-11-19,42,35,25,26,23,15,68,60,53,0.00,40.00,3,-99,7,0.00
2013-11-20,35,32,30,30,25,22,97,77,62,0.00,40.00,1,1,5,0.00
2013-11-21,40,35,32,32,29,26,96,79,61,0.00,40.00,1,-110,7,0.00
2013-11-22,29,26,24,29,25,24,100,97,95,0.00,40.00,1,0,3,0.00
2013-11-23,27,22,21,24,18,-100,98,91,88,0.00,40.00,2,1,7,0.00
2013-11-24,28,21,16,26,20,15,97,94,90,0.00,40.00,1,1,5,0.02
2013-11-25,27,21,17,21,18,16,94,87,70,0.00,40.00,3,1,10,0.00
2013-11-26,31,20,11,23,16,10,94,84,65,0.00,40.00,2,-90,5,0.00
2013-11-27,35,24,14,23,20,13,96,85,60,0.00,40.00,2,1,3,0.00
2013-11-28,43,29,18,18,13,8,85,57,27,0.00,40.00,3,1,8,0.00
2013-11-29,36,30,26,18,16,13,70,58,41,0.00,40.00,3,2,8,0.00
2013-11-30,36,28,27,21,9,-100,77,57,43,0.00,40.00,1,-166,4,0.00
2013-12-1,35,30,26,21,18,11,77,60,37,0.00,40.00,2,2,6,0.00
2013-12-2,39,37,34,20,17,16,54,45,39,0.00,40.00,3,3,10,0.00
2013-12-3,38,36,33,17,16,15,51,43,38,0.00,40.00,2,-332,6,0.00
2013-12-4,33,30,24,24,20,15,90,66,48,0.00,40.00,3,3,10,0.00
2013-12-11,31,24,15,6,-35,-100,69,30,33,0.00,40.00,3,-374,7,0.00
2013-12-12,23,19,15,1,-2,-7,52,41,26,0.00,40.00,1,0,3,0.00
2013-12-13,32,29,24,18,13,8,79,55,37,0.00,40.00,5,4,13,0.00
2013-12-14,25,15,12,8,-57,-100,83,33,83,0.00,40.00,1,-399,4,0.00
2013-12-15,35,31,27,14,13,13,57,48,41,0.00,40.00,2,2,7,0.00
2013-12-16,40,33,26,14,12,7,59,41,33,0.00,40.00,3,2,11,0.00
2013-12-17,44,30,25,7,5,2,46,34,19,0.00,40.00,1,-399,4,0.00
2013-12-18,44,34,28,7,-38,-100,38,20,28,0.00,40.00,0,-400,1,0.00
2013-12-19,37,32,27,17,14,8,64,49,35,0.00,40.00,2,1,7,0.00
2013-12-20,32,26,20,17,16,14,79,66,47,0.00,40.00,1,0,5,0.00
2013-12-21,28,19,12,20,11,-100,95,79,59,0.00,40.00,2,-159,6,0.00
2013-12-22,23,17,11,14,7,2,86,66,40,0.00,40.00,1,1,5,0.00
2013-12-23,27,19,15,11,8,6,83,63,42,0.00,40.00,3,2,7,0.00
2013-12-24,38,31,23,22,18,11,67,59,47,0.00,40.00,3,2,8,0.00
2013-12-25,30,23,14,4,1,-4,65,42,22,0.00,40.00,1,-249,6,0.00
2013-12-26,42,30,21,6,-6,-100,43,30,21,0.00,40.00,3,-165,10,0.00
2013-12-27,18,17,16,8,6,5,69,62,56,0.00,40.00,1,1,3,0.00
2013-12-28,37,28,33,16,-7,-100,48,36,43,0.00,40.00,3,3,9,0.00
2013-12-29,19,17,15,18,16,13,95,93,91,0.00,40.00,0,0,1,0.00
2013-12-30,34,30,22,12,-52,-100,61,20,38,0.00,40.00,0,-856,4,0.00
2013-12-31,29,26,22,16,14,11,70,59,51,0.00,40.00,3,1,8,0.00
2014-1-1,33,27,21,22,13,-3,74,56,30,0.00,40.00,3,2,9,0.00
2014-1-2,36,26,20,2,0,-2,39,33,23,0.00,40.00,2,-332,7,0.00